sensor_id;sensor_type;location;lat;lon;timestamp;pressure;altitude;pressure_sealevel;temperature;humidity
65758;BME280;52495;52.208;5.158;2022-10-17T00:01:28;101544.47;;;14.71;91.55
65758;BME280;52495;52.208;5.158;2022-10-17T00:03:54;101547.97;;;14.70;91.45
65758;BME280;52495;52.208;5.158;2022-10-17T00:06:21;101544.56;;;14.66;91.53
65758;BME280;52495;52.208;5.158;2022-10-17T00:08:48;101539.44;;;14.62;91.89
65758;BME280;52495;52.208;5.158;2022-10-17T00:11:16;101542.09;;;14.60;92.06
65758;BME280;52495;52.208;5.158;2022-10-17T00:13:43;101542.16;;;14.57;92.66
65758;BME280;52495;52.208;5.158;2022-10-17T00:16:10;101536.09;;;14.56;92.84
65758;BME280;52495;52.208;5.158;2022-10-17T00:18:36;101531.75;;;14.57;92.11
65758;BME280;52495;52.208;5.158;2022-10-17T00:21:03;101536.09;;;14.56;92.37
65758;BME280;52495;52.208;5.158;2022-10-17T00:23:29;101539.59;;;14.55;91.68
65758;BME280;52495;52.208;5.158;2022-10-17T00:25:58;101532.75;;;14.51;92.42
65758;BME280;52495;52.208;5.158;2022-10-17T00:28:27;101540.59;;;14.50;92.68
65758;BME280;52495;52.208;5.158;2022-10-17T00:30:55;101540.59;;;14.50;92.11
65758;BME280;52495;52.208;5.158;2022-10-17T00:33:22;101541.44;;;14.50;91.96
65758;BME280;52495;52.208;5.158;2022-10-17T00:35:48;101541.47;;;14.49;91.95
65758;BME280;52495;52.208;5.158;2022-10-17T00:38:15;101532.88;;;14.47;92.02
65758;BME280;52495;52.208;5.158;2022-10-17T00:40:41;101541.59;;;14.42;92.64
65758;BME280;52495;52.208;5.158;2022-10-17T00:43:16;101533.81;;;14.42;92.22
65758;BME280;52495;52.208;5.158;2022-10-17T00:45:43;101532.88;;;14.45;91.95
65758;BME280;52495;52.208;5.158;2022-10-17T00:48:10;101526.03;;;14.42;93.01
65758;BME280;52495;52.208;5.158;2022-10-17T00:50:38;101529.50;;;14.43;93.46
65758;BME280;52495;52.208;5.158;2022-10-17T00:53:09;101524.25;;;14.45;92.84
65758;BME280;52495;52.208;5.158;2022-10-17T00:55:37;101526.78;;;14.46;92.80
65758;BME280;52495;52.208;5.158;2022-10-17T00:58:04;101522.47;;;14.47;93.60
65758;BME280;52495;52.208;5.158;2022-10-17T01:00:33;101521.66;;;14.45;93.54
65758;BME280;52495;52.208;5.158;2022-10-17T01:03:11;101519.88;;;14.47;93.74
65758;BME280;52495;52.208;5.158;2022-10-17T01:05:38;101519.88;;;14.47;93.21
65758;BME280;52495;52.208;5.158;2022-10-17T01:08:05;101511.13;;;14.51;92.28
65758;BME280;52495;52.208;5.158;2022-10-17T01:10:33;101513.72;;;14.51;92.47
65758;BME280;52495;52.208;5.158;2022-10-17T01:13:06;101504.28;;;14.47;93.08
65758;BME280;52495;52.208;5.158;2022-10-17T01:15:40;101506.00;;;14.46;92.71
65758;BME280;52495;52.208;5.158;2022-10-17T01:18:12;101504.22;;;14.48;93.43
65758;BME280;52495;52.208;5.158;2022-10-17T01:20:50;101498.19;;;14.48;93.11
65758;BME280;52495;52.208;5.158;2022-10-17T01:23:26;101493.88;;;14.47;93.43
65758;BME280;52495;52.208;5.158;2022-10-17T01:25:55;101490.41;;;14.46;93.45
65758;BME280;52495;52.208;5.158;2022-10-17T01:28:31;101493.13;;;14.43;93.60
65758;BME280;52495;52.208;5.158;2022-10-17T01:31:09;101500.03;;;14.42;93.51
65758;BME280;52495;52.208;5.158;2022-10-17T01:33:43;101489.69;;;14.41;93.95
65758;BME280;52495;52.208;5.158;2022-10-17T01:36:13;101491.34;;;14.44;94.28
65758;BME280;52495;52.208;5.158;2022-10-17T01:38:43;101492.31;;;14.39;94.14
65758;BME280;52495;52.208;5.158;2022-10-17T01:41:11;101496.59;;;14.42;94.34
65758;BME280;52495;52.208;5.158;2022-10-17T01:43:43;101500.03;;;14.42;94.34
65758;BME280;52495;52.208;5.158;2022-10-17T01:46:15;101488.81;;;14.40;94.81
65758;BME280;52495;52.208;5.158;2022-10-17T01:48:46;101483.59;;;14.42;94.43
65758;BME280;52495;52.208;5.158;2022-10-17T01:51:14;101486.97;;;14.46;93.95
65758;BME280;52495;52.208;5.158;2022-10-17T01:53:44;101477.44;;;14.46;93.65
65758;BME280;52495;52.208;5.158;2022-10-17T01:56:12;101467.97;;;14.44;93.59
65758;BME280;52495;52.208;5.158;2022-10-17T01:58:40;101455.94;;;14.39;93.89
65758;BME280;52495;52.208;5.158;2022-10-17T02:01:08;101454.84;;;14.50;93.75
65758;BME280;52495;52.208;5.158;2022-10-17T02:03:38;101449.84;;;14.42;93.93
65758;BME280;52495;52.208;5.158;2022-10-17T02:06:06;101446.44;;;14.38;94.14
65758;BME280;52495;52.208;5.158;2022-10-17T02:08:39;101444.78;;;14.36;94.62
65758;BME280;52495;52.208;5.158;2022-10-17T02:11:08;101443.84;;;14.38;94.75
65758;BME280;52495;52.208;5.158;2022-10-17T02:13:39;101435.19;;;14.38;94.94
65758;BME280;52495;52.208;5.158;2022-10-17T02:16:16;101431.59;;;14.44;94.81
65758;BME280;52495;52.208;5.158;2022-10-17T02:18:53;101436.84;;;14.42;95.07
65758;BME280;52495;52.208;5.158;2022-10-17T02:21:27;101432.56;;;14.39;95.02
65758;BME280;52495;52.208;5.158;2022-10-17T02:23:58;101439.47;;;14.40;95.15
65758;BME280;52495;52.208;5.158;2022-10-17T02:26:33;101428.19;;;14.41;95.17
65758;BME280;52495;52.208;5.158;2022-10-17T02:29:03;101435.84;;;14.48;95.29
65758;BME280;52495;52.208;5.158;2022-10-17T02:31:34;101429.06;;;14.40;95.32
65758;BME280;52495;52.208;5.158;2022-10-17T02:34:08;101423.06;;;14.38;95.72
65758;BME280;52495;52.208;5.158;2022-10-17T02:36:39;101417.78;;;14.41;95.77
65758;BME280;52495;52.208;5.158;2022-10-17T02:39:07;101411.66;;;14.44;95.66
65758;BME280;52495;52.208;5.158;2022-10-17T02:41:34;101421.22;;;14.44;96.53
65758;BME280;52495;52.208;5.158;2022-10-17T02:44:01;101422.03;;;14.44;97.24
65758;BME280;52495;52.208;5.158;2022-10-17T02:46:28;101415.88;;;14.50;96.29
65758;BME280;52495;52.208;5.158;2022-10-17T02:48:57;101419.38;;;14.49;97.65
65758;BME280;52495;52.208;5.158;2022-10-17T02:51:28;101417.53;;;14.52;97.68
65758;BME280;52495;52.208;5.158;2022-10-17T02:54:00;101418.34;;;14.54;98.37
65758;BME280;52495;52.208;5.158;2022-10-17T02:56:31;101415.69;;;14.57;98.81
65758;BME280;52495;52.208;5.158;2022-10-17T02:59:00;101432.09;;;14.60;98.87
65758;BME280;52495;52.208;5.158;2022-10-17T03:01:28;101432.88;;;14.63;98.96
65758;BME280;52495;52.208;5.158;2022-10-17T03:04:05;101425.00;;;14.66;98.18
65758;BME280;52495;52.208;5.158;2022-10-17T03:06:33;101418.06;;;14.68;99.09
65758;BME280;52495;52.208;5.158;2022-10-17T03:09:00;101432.59;;;14.76;97.50
65758;BME280;52495;52.208;5.158;2022-10-17T03:11:27;101423.91;;;14.77;99.01
65758;BME280;52495;52.208;5.158;2022-10-17T03:13:54;101424.72;;;14.79;100.00
65758;BME280;52495;52.208;5.158;2022-10-17T03:16:20;101423.75;;;14.83;98.94
65758;BME280;52495;52.208;5.158;2022-10-17T03:18:47;101428.91;;;14.84;99.80
65758;BME280;52495;52.208;5.158;2022-10-17T03:21:14;101427.94;;;14.87;100.00
65758;BME280;52495;52.208;5.158;2022-10-17T03:23:42;101427.03;;;14.90;100.00
65758;BME280;52495;52.208;5.158;2022-10-17T03:26:11;101430.47;;;14.92;100.00
65758;BME280;52495;52.208;5.158;2022-10-17T03:28:39;101435.56;;;14.95;100.00
65758;BME280;52495;52.208;5.158;2022-10-17T03:31:06;101435.53;;;14.96;100.00
65758;BME280;52495;52.208;5.158;2022-10-17T03:33:32;101439.78;;;15.00;100.00
65758;BME280;52495;52.208;5.158;2022-10-17T03:36:03;101442.31;;;15.02;100.00
65758;BME280;52495;52.208;5.158;2022-10-17T03:38:30;101432.81;;;15.01;100.00
65758;BME280;52495;52.208;5.158;2022-10-17T03:40:58;101443.06;;;15.06;100.00
65758;BME280;52495;52.208;5.158;2022-10-17T03:43:25;101452.63;;;15.05;100.00
65758;BME280;52495;52.208;5.158;2022-10-17T03:45:51;101437.84;;;15.07;100.00
65758;BME280;52495;52.208;5.158;2022-10-17T03:48:18;101449.97;;;15.08;100.00
65758;BME280;52495;52.208;5.158;2022-10-17T03:50:44;101446.47;;;15.09;100.00
65758;BME280;52495;52.208;5.158;2022-10-17T03:53:12;101445.53;;;15.12;100.00
65758;BME280;52495;52.208;5.158;2022-10-17T03:55:38;101443.75;;;15.14;100.00
65758;BME280;52495;52.208;5.158;2022-10-17T03:58:07;101447.19;;;15.14;100.00
65758;BME280;52495;52.208;5.158;2022-10-17T04:00:34;101435.03;;;15.15;100.00
65758;BME280;52495;52.208;5.158;2022-10-17T04:03:01;101438.47;;;15.17;100.00
65758;BME280;52495;52.208;5.158;2022-10-17T04:05:27;101434.97;;;15.18;100.00
65758;BME280;52495;52.208;5.158;2022-10-17T04:07:55;101436.69;;;15.17;100.00
65758;BME280;52495;52.208;5.158;2022-10-17T04:10:37;101434.09;;;15.17;100.00
65758;BME280;52495;52.208;5.158;2022-10-17T04:13:04;101430.59;;;15.18;100.00
65758;BME280;52495;52.208;5.158;2022-10-17T04:15:32;101425.41;;;15.18;100.00
65758;BME280;52495;52.208;5.158;2022-10-17T04:17:58;101440.19;;;15.18;100.00
65758;BME280;52495;52.208;5.158;2022-10-17T04:20:25;101450.56;;;15.18;100.00
65758;BME280;52495;52.208;5.158;2022-10-17T04:22:52;101457.50;;;15.19;100.00
65758;BME280;52495;52.208;5.158;2022-10-17T04:25:18;101460.09;;;15.19;100.00
65758;BME280;52495;52.208;5.158;2022-10-17T04:27:46;101451.41;;;15.18;100.00
65758;BME280;52495;52.208;5.158;2022-10-17T04:30:14;101447.91;;;15.20;100.00
65758;BME280;52495;52.208;5.158;2022-10-17T04:32:42;101447.91;;;15.20;100.00
65758;BME280;52495;52.208;5.158;2022-10-17T04:35:17;101452.22;;;15.21;100.00
65758;BME280;52495;52.208;5.158;2022-10-17T04:37:49;101451.34;;;15.22;100.00
65758;BME280;52495;52.208;5.158;2022-10-17T04:40:17;101465.16;;;15.24;100.00
65758;BME280;52495;52.208;5.158;2022-10-17T04:42:45;101454.69;;;15.25;100.00
65758;BME280;52495;52.208;5.158;2022-10-17T04:45:16;101452.88;;;15.29;100.00
65758;BME280;52495;52.208;5.158;2022-10-17T04:47:45;101461.53;;;15.29;100.00
65758;BME280;52495;52.208;5.158;2022-10-17T04:50:11;101455.44;;;15.30;100.00
65758;BME280;52495;52.208;5.158;2022-10-17T04:52:39;101466.69;;;15.31;100.00
65758;BME280;52495;52.208;5.158;2022-10-17T04:55:07;101470.91;;;15.35;100.00
65758;BME280;52495;52.208;5.158;2022-10-17T04:57:34;101478.72;;;15.35;100.00
65758;BME280;52495;52.208;5.158;2022-10-17T05:00:19;101482.91;;;15.41;100.00
65758;BME280;52495;52.208;5.158;2022-10-17T05:03:03;101482.88;;;15.42;100.00
65758;BME280;52495;52.208;5.158;2022-10-17T05:05:31;101495.84;;;15.44;100.00
65758;BME280;52495;52.208;5.158;2022-10-17T05:07:58;101496.66;;;15.46;100.00
65758;BME280;52495;52.208;5.158;2022-10-17T05:10:28;101489.69;;;15.46;100.00
65758;BME280;52495;52.208;5.158;2022-10-17T05:12:56;101495.69;;;15.50;100.00
65758;BME280;52495;52.208;5.158;2022-10-17T05:15:27;101487.91;;;15.48;100.00
65758;BME280;52495;52.208;5.158;2022-10-17T05:17:54;101487.91;;;15.48;100.00
65758;BME280;52495;52.208;5.158;2022-10-17T05:20:23;101484.47;;;15.48;100.00
65758;BME280;52495;52.208;5.158;2022-10-17T05:22:50;101476.59;;;15.50;100.00
65758;BME280;52495;52.208;5.158;2022-10-17T05:25:19;101482.66;;;15.50;100.00
65758;BME280;52495;52.208;5.158;2022-10-17T05:27:45;101476.59;;;15.50;100.00
65758;BME280;52495;52.208;5.158;2022-10-17T05:30:13;101482.69;;;15.48;100.00
65758;BME280;52495;52.208;5.158;2022-10-17T05:32:40;101492.25;;;15.48;100.00
65758;BME280;52495;52.208;5.158;2022-10-17T05:35:08;101508.78;;;15.47;100.00
65758;BME280;52495;52.208;5.158;2022-10-17T05:37:37;101501.78;;;15.49;100.00
65758;BME280;52495;52.208;5.158;2022-10-17T05:40:05;101508.69;;;15.50;100.00
65758;BME280;52495;52.208;5.158;2022-10-17T05:42:31;101513.00;;;15.51;100.00
65758;BME280;52495;52.208;5.158;2022-10-17T05:44:58;101507.75;;;15.53;100.00
65758;BME280;52495;52.208;5.158;2022-10-17T05:47:25;101506.84;;;15.54;100.00
65758;BME280;52495;52.208;5.158;2022-10-17T05:49:52;101504.31;;;15.52;100.00
65758;BME280;52495;52.208;5.158;2022-10-17T05:52:25;101487.78;;;15.53;100.00
65758;BME280;52495;52.208;5.158;2022-10-17T05:55:08;101485.91;;;15.58;100.00
65758;BME280;52495;52.208;5.158;2022-10-17T05:57:35;101485.06;;;15.58;100.00
65758;BME280;52495;52.208;5.158;2022-10-17T06:00:05;101481.50;;;15.60;100.00
65758;BME280;52495;52.208;5.158;2022-10-17T06:02:43;101489.38;;;15.59;100.00
65758;BME280;52495;52.208;5.158;2022-10-17T06:05:12;101487.59;;;15.59;100.00
65758;BME280;52495;52.208;5.158;2022-10-17T06:07:39;101497.19;;;15.57;100.00
65758;BME280;52495;52.208;5.158;2022-10-17T06:10:08;101498.91;;;15.58;100.00
65758;BME280;52495;52.208;5.158;2022-10-17T06:12:37;101501.59;;;15.55;100.00
65758;BME280;52495;52.208;5.158;2022-10-17T06:15:07;101508.56;;;15.55;100.00
65758;BME280;52495;52.208;5.158;2022-10-17T06:17:34;101512.00;;;15.55;100.00
65758;BME280;52495;52.208;5.158;2022-10-17T06:20:00;101506.78;;;15.55;100.00
65758;BME280;52495;52.208;5.158;2022-10-17T06:22:27;101505.97;;;15.55;100.00
65758;BME280;52495;52.208;5.158;2022-10-17T06:24:55;101509.41;;;15.55;100.00
65758;BME280;52495;52.208;5.158;2022-10-17T06:27:22;101505.91;;;15.56;100.00
65758;BME280;52495;52.208;5.158;2022-10-17T06:29:49;101521.53;;;15.56;100.00
65758;BME280;52495;52.208;5.158;2022-10-17T06:32:16;101531.94;;;15.56;100.00
65758;BME280;52495;52.208;5.158;2022-10-17T06:34:45;101537.94;;;15.58;100.00
65758;BME280;52495;52.208;5.158;2022-10-17T06:37:11;101531.84;;;15.59;100.00
65758;BME280;52495;52.208;5.158;2022-10-17T06:39:39;101529.19;;;15.62;100.00
65758;BME280;52495;52.208;5.158;2022-10-17T06:42:11;101535.22;;;15.63;100.00
65758;BME280;52495;52.208;5.158;2022-10-17T06:44:46;101565.56;;;15.64;100.00
65758;BME280;52495;52.208;5.158;2022-10-17T06:47:38;101566.34;;;15.68;100.00
65758;BME280;52495;52.208;5.158;2022-10-17T06:50:27;101560.25;;;15.69;100.00
65758;BME280;52495;52.208;5.158;2022-10-17T06:53:09;101568.00;;;15.70;100.00
65758;BME280;52495;52.208;5.158;2022-10-17T06:55:56;101559.31;;;15.71;100.00
65758;BME280;52495;52.208;5.158;2022-10-17T06:58:50;101570.53;;;15.73;100.00
65758;BME280;52495;52.208;5.158;2022-10-17T07:01:24;101572.19;;;15.76;100.00
65758;BME280;52495;52.208;5.158;2022-10-17T07:03:56;101577.31;;;15.79;100.00
65758;BME280;52495;52.208;5.158;2022-10-17T07:06:23;101585.94;;;15.81;100.00
65758;BME280;52495;52.208;5.158;2022-10-17T07:08:52;101582.41;;;15.85;100.00
65758;BME280;52495;52.208;5.158;2022-10-17T07:11:20;101587.56;;;15.87;100.00
65758;BME280;52495;52.208;5.158;2022-10-17T07:13:50;101578.84;;;15.88;100.00
65758;BME280;52495;52.208;5.158;2022-10-17T07:16:16;101584.00;;;15.89;100.00
65758;BME280;52495;52.208;5.158;2022-10-17T07:18:49;101577.00;;;15.91;100.00
65758;BME280;52495;52.208;5.158;2022-10-17T07:21:16;101594.34;;;15.92;100.00
65758;BME280;52495;52.208;5.158;2022-10-17T07:23:43;101593.44;;;15.93;100.00
65758;BME280;52495;52.208;5.158;2022-10-17T07:26:12;101596.03;;;15.95;100.00
65758;BME280;52495;52.208;5.158;2022-10-17T07:28:41;101600.34;;;15.96;100.00
65758;BME280;52495;52.208;5.158;2022-10-17T07:31:33;101592.41;;;15.99;100.00
65758;BME280;52495;52.208;5.158;2022-10-17T07:34:02;101599.41;;;15.99;100.00
65758;BME280;52495;52.208;5.158;2022-10-17T07:36:29;101594.09;;;16.02;100.00
65758;BME280;52495;52.208;5.158;2022-10-17T07:38:57;101605.38;;;16.02;100.00
65758;BME280;52495;52.208;5.158;2022-10-17T07:41:25;101638.38;;;16.02;100.00
65758;BME280;52495;52.208;5.158;2022-10-17T07:43:52;101634.84;;;16.04;100.00
65758;BME280;52495;52.208;5.158;2022-10-17T07:46:24;101636.47;;;16.07;100.00
65758;BME280;52495;52.208;5.158;2022-10-17T07:48:50;101646.91;;;16.07;100.00
65758;BME280;52495;52.208;5.158;2022-10-17T07:51:20;101653.81;;;16.10;100.00
65758;BME280;52495;52.208;5.158;2022-10-17T07:53:47;101668.47;;;16.12;100.00
65758;BME280;52495;52.208;5.158;2022-10-17T07:56:13;101693.66;;;16.13;100.00
65758;BME280;52495;52.208;5.158;2022-10-17T07:58:40;101703.13;;;16.16;100.00
65758;BME280;52495;52.208;5.158;2022-10-17T08:01:08;101714.34;;;16.18;100.00
65758;BME280;52495;52.208;5.158;2022-10-17T08:03:39;101732.56;;;16.19;100.00
65758;BME280;52495;52.208;5.158;2022-10-17T08:06:07;101749.03;;;16.20;100.00
65758;BME280;52495;52.208;5.158;2022-10-17T08:08:35;101762.13;;;16.18;100.00
65758;BME280;52495;52.208;5.158;2022-10-17T08:11:02;101766.38;;;16.22;100.00
65758;BME280;52495;52.208;5.158;2022-10-17T08:13:29;101774.06;;;16.26;100.00
65758;BME280;52495;52.208;5.158;2022-10-17T08:15:57;101781.88;;;16.27;100.00
65758;BME280;52495;52.208;5.158;2022-10-17T08:18:24;101781.88;;;16.27;100.00
65758;BME280;52495;52.208;5.158;2022-10-17T08:20:50;101780.94;;;16.30;100.00
65758;BME280;52495;52.208;5.158;2022-10-17T08:23:17;101767.81;;;16.33;100.00
65758;BME280;52495;52.208;5.158;2022-10-17T08:25:45;101768.63;;;16.35;100.00
65758;BME280;52495;52.208;5.158;2022-10-17T08:28:11;101756.50;;;16.34;100.00
65758;BME280;52495;52.208;5.158;2022-10-17T08:30:38;101746.00;;;16.37;100.00
65758;BME280;52495;52.208;5.158;2022-10-17T08:33:05;101748.56;;;16.38;100.00
65758;BME280;52495;52.208;5.158;2022-10-17T08:35:31;101739.91;;;16.38;100.00
65758;BME280;52495;52.208;5.158;2022-10-17T08:37:58;101751.16;;;16.38;100.00
65758;BME280;52495;52.208;5.158;2022-10-17T08:40:26;101770.28;;;16.39;100.00
65758;BME280;52495;52.208;5.158;2022-10-17T08:43:00;101774.53;;;16.42;100.00
65758;BME280;52495;52.208;5.158;2022-10-17T08:45:33;101771.94;;;16.42;100.00
65758;BME280;52495;52.208;5.158;2022-10-17T08:48:02;101770.16;;;16.42;100.00
65758;BME280;52495;52.208;5.158;2022-10-17T08:50:31;101771.88;;;16.43;100.00
65758;BME280;52495;52.208;5.158;2022-10-17T08:53:01;101776.19;;;16.44;100.00
65758;BME280;52495;52.208;5.158;2022-10-17T08:55:31;101761.34;;;16.48;100.00
65758;BME280;52495;52.208;5.158;2022-10-17T08:58:00;101748.34;;;16.46;100.00
65758;BME280;52495;52.208;5.158;2022-10-17T09:00:27;101726.59;;;16.47;100.00
65758;BME280;52495;52.208;5.158;2022-10-17T09:02:58;101725.69;;;16.48;100.00
65758;BME280;52495;52.208;5.158;2022-10-17T09:05:37;101732.69;;;16.48;100.00
65758;BME280;52495;52.208;5.158;2022-10-17T09:08:08;101720.44;;;16.50;100.00
65758;BME280;52495;52.208;5.158;2022-10-17T09:10:41;101717.81;;;16.51;100.00
65758;BME280;52495;52.208;5.158;2022-10-17T09:13:16;101729.03;;;16.53;100.00
65758;BME280;52495;52.208;5.158;2022-10-17T09:15:51;101734.19;;;16.55;100.00
65758;BME280;52495;52.208;5.158;2022-10-17T09:18:22;101744.56;;;16.58;100.00
65758;BME280;52495;52.208;5.158;2022-10-17T09:20:51;101758.44;;;16.59;100.00
65758;BME280;52495;52.208;5.158;2022-10-17T09:23:19;101780.09;;;16.61;100.00
65758;BME280;52495;52.208;5.158;2022-10-17T09:25:48;101794.84;;;16.62;100.00
65758;BME280;52495;52.208;5.158;2022-10-17T09:28:18;101784.41;;;16.63;100.00
65758;BME280;52495;52.208;5.158;2022-10-17T09:30:48;101788.72;;;16.64;100.00
65758;BME280;52495;52.208;5.158;2022-10-17T09:33:17;101789.50;;;16.66;100.00
65758;BME280;52495;52.208;5.158;2022-10-17T09:35:44;101776.44;;;16.68;100.00
65758;BME280;52495;52.208;5.158;2022-10-17T09:38:15;101768.53;;;16.71;100.00
65758;BME280;52495;52.208;5.158;2022-10-17T09:40:42;101758.13;;;16.69;100.00
65758;BME280;52495;52.208;5.158;2022-10-17T09:43:10;101747.63;;;16.73;100.00
65758;BME280;52495;52.208;5.158;2022-10-17T09:45:41;101748.50;;;16.73;100.00
65758;BME280;52495;52.208;5.158;2022-10-17T09:48:14;101757.16;;;16.74;100.00
65758;BME280;52495;52.208;5.158;2022-10-17T09:50:45;101752.69;;;16.77;100.00
65758;BME280;52495;52.208;5.158;2022-10-17T09:53:12;101743.06;;;16.79;100.00
65758;BME280;52495;52.208;5.158;2022-10-17T09:55:41;101750.81;;;16.82;100.00
65758;BME280;52495;52.208;5.158;2022-10-17T09:58:08;101762.09;;;16.83;100.00
65758;BME280;52495;52.208;5.158;2022-10-17T10:00:36;101772.50;;;16.84;100.00
65758;BME280;52495;52.208;5.158;2022-10-17T10:05:59;101804.63;;;16.85;100.00
65758;BME280;52495;52.208;5.158;2022-10-17T10:08:30;101811.63;;;16.84;100.00
65758;BME280;52495;52.208;5.158;2022-10-17T10:10:57;101825.50;;;16.85;100.00
65758;BME280;52495;52.208;5.158;2022-10-17T10:13:26;101825.56;;;16.83;100.00
65758;BME280;52495;52.208;5.158;2022-10-17T10:15:53;101835.94;;;16.85;100.00
65758;BME280;52495;52.208;5.158;2022-10-17T10:18:37;101842.03;;;16.86;100.00
65758;BME280;52495;52.208;5.158;2022-10-17T10:21:07;101847.25;;;16.84;100.00
65758;BME280;52495;52.208;5.158;2022-10-17T10:23:34;101853.34;;;16.84;100.00
65758;BME280;52495;52.208;5.158;2022-10-17T10:26:09;101853.38;;;16.83;100.00
65758;BME280;52495;52.208;5.158;2022-10-17T10:28:37;101865.53;;;16.84;100.00
65758;BME280;52495;52.208;5.158;2022-10-17T10:31:06;101865.63;;;16.81;100.00
65758;BME280;52495;52.208;5.158;2022-10-17T10:33:34;101867.41;;;16.79;100.00
65758;BME280;52495;52.208;5.158;2022-10-17T10:36:02;101875.25;;;16.79;100.00
65758;BME280;52495;52.208;5.158;2022-10-17T10:38:33;101877.81;;;16.80;100.00
65758;BME280;52495;52.208;5.158;2022-10-17T10:41:02;101881.28;;;16.81;100.00
65758;BME280;52495;52.208;5.158;2022-10-17T10:43:31;101886.53;;;16.79;100.00
65758;BME280;52495;52.208;5.158;2022-10-17T10:45:59;101876.06;;;16.81;100.00
65758;BME280;52495;52.208;5.158;2022-10-17T10:48:26;101889.19;;;16.76;100.00
65758;BME280;52495;52.208;5.158;2022-10-17T10:50:56;101889.19;;;16.76;100.00
65758;BME280;52495;52.208;5.158;2022-10-17T10:53:28;101899.75;;;16.73;100.00
65758;BME280;52495;52.208;5.158;2022-10-17T10:55:57;101902.34;;;16.73;100.00
65758;BME280;52495;52.208;5.158;2022-10-17T10:58:27;101906.69;;;16.73;100.00
65758;BME280;52495;52.208;5.158;2022-10-17T11:00:56;101906.63;;;16.74;100.00
65758;BME280;52495;52.208;5.158;2022-10-17T11:03:28;101910.97;;;16.75;100.00
65758;BME280;52495;52.208;5.158;2022-10-17T11:05:57;101905.72;;;16.77;100.00
65758;BME280;52495;52.208;5.158;2022-10-17T11:08:27;101917.88;;;16.76;100.00
65758;BME280;52495;52.208;5.158;2022-10-17T11:11:03;101918.78;;;16.75;100.00
65758;BME280;52495;52.208;5.158;2022-10-17T11:13:33;101915.38;;;16.73;100.00
65758;BME280;52495;52.208;5.158;2022-10-17T11:16:16;101909.44;;;16.68;100.00
65758;BME280;52495;52.208;5.158;2022-10-17T11:18:46;101913.50;;;16.78;100.00
65758;BME280;52495;52.208;5.158;2022-10-17T11:21:17;101923.09;;;16.78;100.00
65758;BME280;52495;52.208;5.158;2022-10-17T11:23:46;101930.91;;;16.78;100.00
65758;BME280;52495;52.208;5.158;2022-10-17T11:26:16;101936.91;;;16.81;100.00
65758;BME280;52495;52.208;5.158;2022-10-17T11:28:50;101938.72;;;16.78;100.00
65758;BME280;52495;52.208;5.158;2022-10-17T11:31:16;101941.22;;;16.82;100.00
65758;BME280;52495;52.208;5.158;2022-10-17T11:33:48;101946.50;;;16.79;100.00
65758;BME280;52495;52.208;5.158;2022-10-17T11:36:15;101954.34;;;16.79;100.00
65758;BME280;52495;52.208;5.158;2022-10-17T11:38:44;101954.50;;;16.73;100.00
65758;BME280;52495;52.208;5.158;2022-10-17T11:41:14;101961.59;;;16.68;100.00
65758;BME280;52495;52.208;5.158;2022-10-17T11:43:46;101964.25;;;16.65;100.00
65758;BME280;52495;52.208;5.158;2022-10-17T11:46:15;101962.47;;;16.67;100.00
65758;BME280;52495;52.208;5.158;2022-10-17T11:48:47;101956.38;;;16.68;100.00
65758;BME280;52495;52.208;5.158;2022-10-17T11:51:16;101965.09;;;16.65;100.00
65758;BME280;52495;52.208;5.158;2022-10-17T11:53:46;101965.09;;;16.65;100.00
65758;BME280;52495;52.208;5.158;2022-10-17T11:56:28;101965.97;;;16.66;100.00
65758;BME280;52495;52.208;5.158;2022-10-17T11:59:00;101969.47;;;16.65;100.00
65758;BME280;52495;52.208;5.158;2022-10-17T12:01:35;101968.53;;;16.67;100.00
65758;BME280;52495;52.208;5.158;2022-10-17T12:04:12;101970.28;;;16.67;100.00
65758;BME280;52495;52.208;5.158;2022-10-17T12:06:46;101972.97;;;16.64;100.00
65758;BME280;52495;52.208;5.158;2022-10-17T12:09:17;101969.41;;;16.66;100.00
65758;BME280;52495;52.208;5.158;2022-10-17T12:11:49;101982.44;;;16.68;100.00
65758;BME280;52495;52.208;5.158;2022-10-17T12:14:36;101984.22;;;16.66;100.00
65758;BME280;52495;52.208;5.158;2022-10-17T12:17:03;101983.34;;;16.65;100.00
65758;BME280;52495;52.208;5.158;2022-10-17T12:19:31;101987.78;;;16.63;100.00
65758;BME280;52495;52.208;5.158;2022-10-17T12:24:40;101993.84;;;16.64;100.00
65758;BME280;52495;52.208;5.158;2022-10-17T12:27:31;101986.00;;;16.64;100.00
65758;BME280;52495;52.208;5.158;2022-10-17T12:30:00;101986.84;;;16.66;100.00
65758;BME280;52495;52.208;5.158;2022-10-17T12:32:27;101993.75;;;16.67;100.00
65758;BME280;52495;52.208;5.158;2022-10-17T12:34:54;102001.47;;;16.72;100.00
65758;BME280;52495;52.208;5.158;2022-10-17T12:42:48;102001.34;;;16.76;100.00
65758;BME280;52495;52.208;5.158;2022-10-17T12:48:02;101995.16;;;16.82;100.00
65758;BME280;52495;52.208;5.158;2022-10-17T12:53:16;102014.19;;;16.86;100.00
65758;BME280;52495;52.208;5.158;2022-10-17T12:55:44;102012.41;;;16.88;100.00
65758;BME280;52495;52.208;5.158;2022-10-17T12:58:12;102014.00;;;16.92;100.00
65758;BME280;52495;52.208;5.158;2022-10-17T13:00:40;102027.03;;;16.92;100.00
65758;BME280;52495;52.208;5.158;2022-10-17T13:03:11;102029.72;;;16.90;100.00
65758;BME280;52495;52.208;5.158;2022-10-17T13:05:39;102030.59;;;16.89;100.00
65758;BME280;52495;52.208;5.158;2022-10-17T13:08:07;102023.59;;;16.91;100.00
65758;BME280;52495;52.208;5.158;2022-10-17T13:10:39;102024.41;;;16.95;100.00
65758;BME280;52495;52.208;5.158;2022-10-17T13:13:07;102022.59;;;16.98;100.00